createdAt,value
2019-03-29T00:01:10.942Z,9.83
2019-03-29T00:03:45.265Z,9.76
2019-03-29T00:06:30.763Z,9.88
2019-03-29T00:09:06.294Z,9.80
2019-03-29T00:11:40.706Z,9.72
2019-03-29T00:14:34.459Z,9.85
2019-03-29T00:17:10.027Z,9.76
2019-03-29T00:20:07.159Z,9.73
2019-03-29T00:22:41.465Z,9.67
2019-03-29T00:25:37.271Z,9.66
2019-03-29T00:28:11.976Z,9.67
2019-03-29T00:30:46.287Z,9.64
2019-03-29T00:33:20.382Z,9.64
2019-03-29T00:36:10.815Z,9.70
2019-03-29T00:39:01.927Z,9.69
2019-03-29T00:41:39.266Z,9.63
2019-03-29T00:44:13.658Z,9.60
2019-03-29T00:46:59.113Z,9.70
2019-03-29T00:49:36.116Z,9.60
2019-03-29T00:52:11.000Z,9.62
2019-03-29T00:54:46.563Z,9.60
2019-03-29T00:57:43.785Z,8.89
2019-03-29T01:00:18.656Z,9.59
2019-03-29T01:03:08.549Z,9.62
2019-03-29T01:05:43.130Z,9.56
2019-03-29T01:08:18.330Z,9.59
2019-03-29T01:11:04.827Z,9.59
2019-03-29T01:13:41.215Z,9.60
2019-03-29T01:16:33.891Z,9.66
2019-03-29T01:19:09.679Z,9.61
2019-03-29T01:21:45.546Z,9.57
2019-03-29T01:24:32.971Z,9.61
2019-03-29T01:27:06.872Z,9.58
2019-03-29T01:29:59.920Z,9.61
2019-03-29T01:32:34.047Z,9.58
2019-03-29T01:35:09.325Z,9.54
2019-03-29T01:37:43.762Z,9.53
2019-03-29T01:40:18.135Z,9.53
2019-03-29T01:42:52.973Z,9.53
2019-03-29T01:45:26.666Z,9.52
2019-03-29T01:48:00.422Z,9.54
2019-03-29T01:50:35.162Z,9.54
2019-03-29T01:53:12.084Z,9.53
2019-03-29T01:55:46.282Z,9.51
2019-03-29T01:58:20.308Z,9.53
2019-03-29T02:01:11.053Z,9.60
2019-03-29T02:03:46.357Z,9.62
2019-03-29T02:06:20.610Z,9.63
2019-03-29T02:08:54.293Z,9.59
2019-03-29T02:11:27.954Z,9.65
2019-03-29T02:14:12.849Z,9.77
2019-03-29T02:16:57.883Z,9.75
2019-03-29T02:19:32.426Z,9.74
2019-03-29T02:22:06.840Z,9.75
2019-03-29T02:24:41.169Z,9.72
2019-03-29T02:27:15.428Z,9.68
2019-03-29T02:30:00.939Z,9.71
2019-03-29T02:32:35.322Z,9.66
2019-03-29T02:35:11.478Z,9.59
2019-03-29T02:37:45.940Z,9.61
2019-03-29T02:40:32.853Z,9.68
2019-03-29T02:43:08.111Z,9.57
2019-03-29T02:45:42.431Z,9.55
2019-03-29T02:48:29.216Z,9.60
2019-03-29T02:51:05.192Z,9.56
2019-03-29T02:53:40.980Z,9.55
2019-03-29T02:56:18.661Z,9.55
2019-03-29T02:59:04.172Z,9.58
2019-03-29T03:01:38.823Z,9.54
2019-03-29T03:04:13.971Z,9.51
2019-03-29T03:06:48.740Z,9.54
2019-03-29T03:09:34.986Z,9.61
2019-03-29T03:12:08.678Z,9.56
2019-03-29T03:14:44.062Z,9.56
2019-03-29T03:17:18.416Z,9.65
2019-03-29T03:20:04.863Z,9.68
2019-03-29T03:22:39.780Z,9.59
2019-03-29T03:25:13.939Z,9.56
2019-03-29T03:27:48.290Z,9.63
2019-03-29T03:30:41.971Z,9.60
2019-03-29T03:33:16.335Z,9.57
2019-03-29T03:35:59.903Z,9.63
2019-03-29T03:38:35.239Z,9.62
2019-03-29T03:41:09.254Z,9.59
2019-03-29T03:44:01.845Z,9.62
2019-03-29T03:46:36.140Z,9.52
2019-03-29T03:49:21.378Z,9.58
2019-03-29T03:51:55.662Z,9.56
2019-03-29T03:54:29.715Z,9.57
2019-03-29T03:57:22.870Z,9.68
2019-03-29T03:59:58.682Z,9.62
2019-03-29T04:02:49.780Z,9.67
2019-03-29T04:05:24.445Z,9.63
2019-03-29T04:08:01.701Z,9.62
2019-03-29T04:10:36.049Z,9.65
2019-03-29T04:13:10.452Z,9.60
2019-03-29T04:15:50.505Z,9.58
2019-03-29T04:18:26.416Z,9.60
2019-03-29T04:21:21.432Z,9.64
2019-03-29T04:23:54.083Z,9.60
2019-03-29T04:26:28.851Z,9.62
2019-03-29T04:29:14.307Z,9.67
2019-03-29T04:31:49.528Z,9.59
2019-03-29T04:34:23.954Z,9.56
2019-03-29T04:36:57.970Z,9.52
2019-03-29T04:40:05.765Z,9.53
2019-03-29T04:42:37.822Z,9.52
2019-03-29T04:45:28.056Z,9.40
2019-03-29T04:48:21.790Z,9.25
2019-03-29T04:50:58.493Z,9.05
2019-03-29T04:57:35.327Z,8.92
2019-03-29T05:00:09.240Z,8.71
2019-03-29T05:02:44.516Z,8.61
2019-03-29T05:05:18.729Z,8.54
2019-03-29T05:08:04.191Z,8.52
2019-03-29T05:10:38.412Z,8.27
2019-03-29T05:13:13.068Z,8.22
2019-03-29T05:15:47.505Z,8.03
2019-03-29T05:18:22.295Z,7.93
2019-03-29T05:20:57.573Z,7.84
2019-03-29T05:23:31.599Z,7.71
2019-03-29T05:26:17.283Z,7.74
2019-03-29T05:28:51.402Z,7.73
2019-03-29T05:31:26.121Z,7.64
2019-03-29T05:34:00.622Z,7.64
2019-03-29T05:36:46.220Z,7.61
2019-03-29T05:39:22.469Z,7.62
2019-03-29T05:42:15.781Z,7.61
2019-03-29T05:44:59.323Z,7.62
2019-03-29T05:47:33.721Z,7.54
2019-03-29T05:50:21.707Z,7.47
2019-03-29T05:53:08.182Z,7.50
2019-03-29T05:55:44.458Z,7.38
2019-03-29T05:58:18.931Z,7.31
2019-03-29T06:01:02.492Z,7.37
2019-03-29T06:03:37.199Z,7.29
2019-03-29T06:06:28.235Z,7.40
2019-03-29T06:09:07.685Z,7.39
2019-03-29T06:11:54.072Z,7.50
2019-03-29T06:14:28.812Z,7.48
2019-03-29T06:17:02.786Z,7.52
2019-03-29T06:19:37.839Z,7.57
2019-03-29T06:22:13.061Z,7.56
2019-03-29T06:24:47.610Z,7.65
2019-03-29T06:27:22.624Z,7.72
2019-03-29T06:30:06.269Z,7.85
2019-03-29T06:32:40.744Z,7.90
2019-03-29T06:35:16.012Z,7.98
2019-03-29T06:37:50.507Z,8.04
2019-03-29T06:40:27.362Z,8.18
2019-03-29T06:43:01.454Z,8.30
2019-03-29T06:45:52.265Z,8.54
2019-03-29T06:48:27.009Z,8.64
2019-03-29T06:51:02.703Z,8.72
2019-03-29T06:53:36.748Z,8.83
2019-03-29T06:56:10.229Z,8.94
2019-03-29T06:58:47.372Z,8.98
2019-03-29T07:01:32.809Z,9.17
2019-03-29T07:04:25.312Z,9.25
2019-03-29T07:07:00.575Z,9.27
2019-03-29T07:09:47.169Z,9.35
2019-03-29T07:12:22.670Z,9.36
2019-03-29T07:14:57.406Z,9.43
2019-03-29T07:17:53.703Z,9.53
2019-03-29T07:20:27.401Z,9.54
2019-03-29T07:23:02.129Z,9.59
2019-03-29T07:25:37.568Z,9.69
2019-03-29T07:28:12.062Z,9.73
2019-03-29T07:30:58.387Z,9.85
2019-03-29T07:33:32.418Z,9.84
2019-03-29T07:36:06.925Z,9.93
2019-03-29T07:38:52.819Z,10.03
2019-03-29T07:41:32.080Z,10.09
2019-03-29T07:44:04.460Z,10.09
2019-03-29T07:46:38.699Z,10.18
2019-03-29T07:49:13.175Z,10.21
2019-03-29T07:52:00.547Z,10.35
2019-03-29T07:54:46.340Z,10.40
2019-03-29T07:57:21.180Z,10.38
2019-03-29T08:00:06.556Z,10.50
2019-03-29T08:02:41.618Z,10.55
2019-03-29T08:05:16.017Z,10.58
2019-03-29T08:08:06.644Z,10.72
2019-03-29T08:10:53.857Z,10.81
2019-03-29T08:13:29.066Z,10.86
2019-03-29T08:16:06.590Z,10.86
2019-03-29T08:18:40.249Z,10.85
2019-03-29T08:21:26.658Z,10.92
2019-03-29T08:24:01.175Z,10.91
2019-03-29T08:26:37.368Z,10.89
2019-03-29T08:29:12.195Z,10.91
2019-03-29T08:31:46.695Z,11.04
2019-03-29T08:34:31.791Z,11.12
2019-03-29T08:37:17.804Z,11.07
2019-03-29T08:39:56.209Z,11.17
2019-03-29T08:42:28.783Z,11.16
2019-03-29T08:45:03.394Z,11.29
2019-03-29T08:47:40.830Z,11.32
2019-03-29T08:50:15.154Z,11.38
2019-03-29T08:52:49.163Z,11.40
2019-03-29T08:55:23.459Z,11.54
2019-03-29T08:58:09.265Z,11.61
2019-03-29T09:00:44.792Z,11.62
2019-03-29T09:03:19.197Z,11.74
2019-03-29T09:06:04.889Z,11.82
2019-03-29T09:08:57.839Z,11.84
2019-03-29T09:11:32.417Z,11.89
2019-03-29T09:14:06.405Z,11.88
2019-03-29T09:16:40.618Z,11.86
2019-03-29T09:19:26.319Z,11.92
2019-03-29T09:22:00.754Z,11.92
2019-03-29T09:24:51.760Z,12.08
2019-03-29T09:27:25.825Z,12.11
2019-03-29T09:30:00.973Z,12.30
2019-03-29T09:32:36.137Z,12.33
2019-03-29T09:35:24.559Z,12.32
2019-03-29T09:38:01.033Z,12.22
2019-03-29T09:40:34.783Z,12.17
2019-03-29T09:43:09.272Z,12.34
2019-03-29T09:46:03.324Z,12.61
2019-03-29T09:48:37.599Z,12.58
2019-03-29T09:51:12.939Z,12.48
2019-03-29T09:53:47.452Z,12.49
2019-03-29T09:56:38.618Z,12.62
2019-03-29T09:59:06.781Z,12.74
2019-03-29T10:01:40.867Z,12.83
2019-03-29T10:04:32.936Z,12.96
2019-03-29T10:07:07.341Z,12.82
2019-03-29T10:09:54.345Z,12.95
2019-03-29T10:12:42.784Z,12.90
2019-03-29T10:15:05.269Z,12.95
2019-03-29T10:17:51.897Z,12.97
2019-03-29T10:20:26.374Z,12.96
2019-03-29T10:23:12.056Z,13.04
2019-03-29T10:25:58.824Z,13.21
2019-03-29T10:28:50.324Z,13.31
2019-03-29T10:31:32.097Z,13.45
2019-03-29T10:34:00.441Z,13.52
2019-03-29T10:36:34.819Z,13.65
2019-03-29T10:39:21.714Z,13.80
2019-03-29T10:41:54.394Z,13.61
2019-03-29T10:44:28.959Z,13.62
2019-03-29T10:47:03.366Z,13.68
2019-03-29T10:49:48.766Z,13.80
2019-03-29T10:52:34.886Z,13.78
2019-03-29T10:55:24.492Z,13.89
2019-03-29T10:57:58.658Z,14.00
2019-03-29T11:00:45.063Z,14.15
2019-03-29T11:03:19.542Z,14.14
2019-03-29T11:05:53.617Z,14.28
2019-03-29T11:08:28.080Z,14.29
2019-03-29T11:11:02.140Z,14.35
2019-03-29T11:13:47.382Z,14.38
2019-03-29T11:16:30.215Z,14.56
2019-03-29T11:19:16.289Z,14.76
2019-03-29T11:21:50.683Z,14.85
2019-03-29T11:24:36.839Z,14.90
2019-03-29T11:27:23.131Z,14.97
2019-03-29T11:30:13.945Z,14.74
2019-03-29T11:32:57.262Z,14.76
2019-03-29T11:35:32.270Z,14.87
2019-03-29T11:38:05.011Z,14.89
2019-03-29T11:40:39.494Z,15.17
2019-03-29T11:43:26.127Z,15.33
2019-03-29T11:46:01.882Z,15.54
2019-03-29T11:48:36.331Z,15.52
2019-03-29T11:51:20.172Z,15.34
2019-03-29T11:53:54.837Z,15.48
2019-03-29T11:56:29.461Z,15.49
2019-03-29T11:59:12.774Z,15.63
2019-03-29T12:01:48.326Z,15.56
2019-03-29T12:04:23.684Z,15.76
2019-03-29T12:06:57.896Z,15.97
2019-03-29T12:09:32.008Z,15.74
2019-03-29T12:12:27.444Z,15.93
2019-03-29T12:15:00.404Z,15.95
2019-03-29T12:17:52.018Z,16.03
2019-03-29T12:20:35.742Z,15.79
2019-03-29T12:23:11.926Z,15.91
2019-03-29T12:25:46.176Z,15.81
2019-03-29T12:28:21.056Z,16.01
2019-03-29T12:30:55.459Z,16.18
2019-03-29T12:33:46.825Z,16.30
2019-03-29T12:36:33.597Z,16.47
2019-03-29T12:39:08.246Z,16.33
2019-03-29T12:41:42.817Z,16.38
2019-03-29T12:44:39.097Z,16.52
2019-03-29T12:47:13.736Z,16.52
2019-03-29T12:49:57.045Z,16.60
2019-03-29T12:52:31.857Z,16.46
2019-03-29T12:55:18.356Z,16.63
2019-03-29T12:57:52.196Z,16.84
2019-03-29T13:00:28.233Z,16.82
2019-03-29T13:03:14.381Z,16.86
2019-03-29T13:05:59.547Z,16.94
2019-03-29T13:08:34.478Z,16.98
2019-03-29T13:11:19.824Z,16.83
2019-03-29T13:14:09.177Z,16.77
2019-03-29T13:16:31.734Z,16.90
2019-03-29T13:19:17.814Z,17.05
2019-03-29T13:21:52.337Z,17.15
2019-03-29T13:24:39.069Z,17.43
2019-03-29T13:27:12.862Z,17.22
2019-03-29T13:29:47.371Z,17.22
2019-03-29T13:32:33.383Z,17.09
2019-03-29T13:35:08.124Z,17.10
2019-03-29T13:37:43.725Z,17.20
2019-03-29T13:40:27.830Z,17.61
2019-03-29T13:43:02.328Z,17.71
2019-03-29T13:45:37.515Z,17.62
2019-03-29T13:48:13.842Z,17.64
2019-03-29T13:51:04.447Z,17.90
2019-03-29T13:53:49.834Z,17.99
2019-03-29T13:56:35.244Z,17.92
2019-03-29T13:59:20.687Z,17.93
2019-03-29T14:01:55.248Z,17.96
2019-03-29T14:04:29.293Z,17.93
2019-03-29T14:07:16.830Z,17.77
2019-03-29T14:10:03.934Z,17.77
2019-03-29T14:12:39.506Z,17.65
2019-03-29T14:15:26.300Z,17.93
2019-03-29T14:18:01.992Z,17.86
2019-03-29T14:20:46.876Z,17.98
2019-03-29T14:23:31.243Z,17.99
2019-03-29T14:26:05.644Z,17.76
2019-03-29T14:28:40.492Z,17.71
2019-03-29T14:31:27.304Z,17.58
2019-03-29T14:34:13.755Z,17.68
2019-03-29T14:36:47.929Z,17.78
2019-03-29T14:39:33.314Z,17.74
2019-03-29T14:42:07.803Z,17.74
2019-03-29T14:44:52.465Z,17.61
2019-03-29T14:47:19.781Z,17.59
2019-03-29T14:50:06.918Z,17.47
2019-03-29T14:52:41.922Z,17.47
2019-03-29T14:55:19.320Z,17.59
2019-03-29T14:58:03.765Z,17.61
2019-03-29T15:00:48.739Z,17.46
2019-03-29T15:03:40.957Z,17.34
2019-03-29T15:06:15.394Z,17.21
2019-03-29T15:09:08.617Z,17.29
2019-03-29T15:11:54.987Z,17.30
2019-03-29T15:14:30.129Z,17.21
2019-03-29T15:17:04.223Z,16.99
2019-03-29T15:19:49.801Z,17.11
2019-03-29T15:22:36.231Z,16.96
2019-03-29T15:25:09.966Z,16.95
2019-03-29T15:27:44.561Z,17.09
2019-03-29T15:30:20.163Z,17.11
2019-03-29T15:32:56.906Z,17.11
2019-03-29T15:35:31.095Z,17.11
2019-03-29T15:38:06.674Z,16.97
2019-03-29T15:40:41.516Z,16.97
2019-03-29T15:43:28.054Z,16.93
2019-03-29T15:46:03.524Z,16.74
2019-03-29T15:48:38.094Z,16.64
2019-03-29T15:51:23.685Z,16.62
2019-03-29T15:53:57.698Z,16.62
2019-03-29T15:56:31.472Z,16.53
2019-03-29T15:59:05.401Z,16.38
2019-03-29T16:01:39.480Z,16.37
2019-03-29T16:04:18.700Z,16.28
2019-03-29T16:06:53.219Z,16.28
2019-03-29T16:09:45.525Z,16.32
2019-03-29T16:12:20.295Z,16.26
2019-03-29T16:14:54.875Z,16.21
2019-03-29T16:17:28.068Z,16.19
2019-03-29T16:20:08.424Z,16.11
2019-03-29T16:22:50.566Z,15.98
2019-03-29T16:25:42.285Z,15.99
2019-03-29T16:28:19.608Z,16.02
2019-03-29T16:30:54.530Z,15.99
2019-03-29T16:33:29.240Z,15.94
2019-03-29T16:36:21.658Z,15.93
2019-03-29T16:38:55.812Z,15.85
2019-03-29T16:41:41.863Z,15.92
2019-03-29T16:44:15.959Z,15.79
2019-03-29T16:46:50.575Z,15.81
2019-03-29T16:49:25.117Z,15.73
2019-03-29T16:52:00.024Z,15.76
2019-03-29T16:54:36.124Z,15.73
2019-03-29T16:57:11.139Z,15.62
2019-03-29T17:00:01.758Z,15.63
2019-03-29T17:02:36.115Z,15.56
2019-03-29T17:05:10.374Z,15.52
2019-03-29T17:07:44.966Z,15.45
2019-03-29T17:10:18.711Z,15.39
2019-03-29T17:13:04.930Z,15.33
2019-03-29T17:16:01.838Z,15.29
2019-03-29T17:18:29.428Z,15.20
2019-03-29T17:21:15.926Z,15.12
2019-03-29T17:23:52.666Z,15.06
2019-03-29T17:26:26.503Z,14.88
2019-03-29T17:29:18.828Z,14.71
2019-03-29T17:31:52.968Z,14.55
2019-03-29T17:34:28.118Z,14.34
2019-03-29T17:37:02.545Z,14.20
2019-03-29T17:39:36.675Z,14.11
2019-03-29T17:42:10.435Z,13.98
2019-03-29T17:44:45.457Z,13.88
2019-03-29T17:47:31.768Z,13.80
2019-03-29T17:50:06.341Z,13.59
2019-03-29T17:52:42.361Z,13.53
2019-03-29T17:55:35.538Z,13.32
2019-03-29T17:58:09.713Z,13.08
2019-03-29T18:00:44.102Z,12.86
2019-03-29T18:03:19.862Z,12.72
2019-03-29T18:05:54.327Z,12.70
2019-03-29T18:08:28.819Z,12.71
2019-03-29T18:11:03.196Z,12.72
2019-03-29T18:13:37.662Z,12.62
2019-03-29T18:16:12.216Z,12.40
2019-03-29T18:18:47.361Z,12.21
2019-03-29T18:21:21.669Z,12.03
2019-03-29T18:23:57.067Z,11.94
2019-03-29T18:26:44.629Z,11.83
2019-03-29T18:29:37.188Z,11.82
2019-03-29T18:32:11.681Z,11.72
2019-03-29T18:34:46.386Z,11.68
2019-03-29T18:37:36.407Z,11.63
2019-03-29T18:40:19.868Z,11.53
2019-03-29T18:43:16.541Z,11.47
2019-03-29T18:45:50.690Z,11.26
2019-03-29T18:48:37.545Z,11.08
2019-03-29T18:51:24.241Z,11.07
2019-03-29T18:53:58.919Z,11.01
2019-03-29T18:56:34.454Z,10.94
2019-03-29T18:59:09.931Z,10.87
2019-03-29T19:01:57.739Z,10.76
2019-03-29T19:04:50.421Z,10.65
2019-03-29T19:07:30.481Z,10.48
2019-03-29T19:10:05.338Z,10.41
2019-03-29T19:12:39.607Z,10.40
2019-03-29T19:15:14.081Z,10.33
2019-03-29T19:17:48.671Z,10.30
2019-03-29T19:20:34.536Z,10.35
2019-03-29T19:23:09.340Z,10.33
2019-03-29T19:25:54.834Z,10.23
2019-03-29T19:28:27.783Z,10.02
2019-03-29T19:31:02.608Z,10.00
2019-03-29T19:33:36.903Z,10.04
2019-03-29T19:36:12.518Z,10.06
2019-03-29T19:38:48.369Z,9.90
2019-03-29T19:41:22.861Z,9.84
2019-03-29T19:44:18.702Z,9.73
2019-03-29T19:47:13.600Z,9.82
2019-03-29T19:49:51.007Z,9.77
2019-03-29T19:52:26.907Z,9.75
2019-03-29T19:55:01.424Z,9.58
2019-03-29T19:57:36.501Z,9.38
2019-03-29T20:00:22.001Z,9.33
2019-03-29T20:02:56.472Z,9.24
2019-03-29T20:05:34.710Z,9.22
2019-03-29T20:08:18.694Z,9.23
2019-03-29T20:11:10.739Z,9.25
2019-03-29T20:13:46.192Z,9.13
2019-03-29T20:16:20.961Z,9.18
2019-03-29T20:19:10.065Z,9.13
2019-03-29T20:21:44.374Z,9.04
2019-03-29T20:24:31.537Z,9.02
2019-03-29T20:27:12.559Z,8.98
2019-03-29T20:29:51.322Z,8.96
2019-03-29T20:32:43.167Z,8.94
2019-03-29T20:35:16.974Z,8.86
2019-03-29T20:37:53.614Z,8.85
2019-03-29T20:40:32.318Z,8.86
2019-03-29T20:43:08.760Z,8.75
2019-03-29T20:45:43.437Z,8.70
2019-03-29T20:48:35.891Z,8.51
2019-03-29T20:51:10.043Z,8.40
2019-03-29T20:53:55.933Z,8.37
2019-03-29T20:56:35.566Z,8.31
2019-03-29T20:59:10.157Z,8.29
2019-03-29T21:01:54.191Z,8.31
2019-03-29T21:04:28.885Z,8.27
2019-03-29T21:07:09.316Z,8.11
2019-03-29T21:09:43.817Z,8.06
2019-03-29T21:12:20.815Z,8.15
2019-03-29T21:14:58.794Z,8.20
2019-03-29T21:18:05.399Z,8.20
2019-03-29T21:20:54.010Z,7.97
2019-03-29T21:23:57.809Z,7.75
2019-03-29T21:26:41.700Z,7.69
2019-03-29T21:29:16.932Z,7.73
2019-03-29T21:31:51.462Z,7.72
2019-03-29T21:34:25.969Z,7.67
2019-03-29T21:37:00.018Z,7.55
2019-03-29T21:39:57.400Z,7.54
2019-03-29T21:42:32.340Z,7.43
2019-03-29T21:45:28.150Z,7.47
2019-03-29T21:48:25.487Z,7.44
2019-03-29T21:50:56.629Z,7.52
2019-03-29T21:53:31.136Z,7.42
2019-03-29T21:56:05.371Z,7.36
2019-03-29T21:58:39.872Z,7.32
2019-03-29T22:01:15.828Z,7.24
2019-03-29T22:03:51.123Z,7.22
2019-03-29T22:06:26.331Z,7.21
2019-03-29T22:09:00.628Z,7.12
2019-03-29T22:11:37.525Z,7.02
2019-03-29T22:14:13.579Z,6.92
2019-03-29T22:16:49.849Z,6.80
2019-03-29T22:19:42.150Z,6.78
2019-03-29T22:22:17.323Z,6.64
2019-03-29T22:24:51.566Z,6.65
2019-03-29T22:27:45.242Z,6.73
2019-03-29T22:30:21.650Z,6.69
2019-03-29T22:32:55.391Z,6.56
2019-03-29T22:35:29.526Z,6.62
2019-03-29T22:38:24.966Z,6.58
2019-03-29T22:41:17.098Z,6.55
2019-03-29T22:44:11.632Z,6.58
2019-03-29T22:46:56.348Z,6.52
2019-03-29T22:49:32.524Z,6.62
2019-03-29T22:52:17.830Z,6.59
2019-03-29T22:54:53.806Z,6.36
2019-03-29T22:57:44.284Z,6.31
2019-03-29T23:00:27.886Z,6.20
2019-03-29T23:03:14.921Z,6.24
2019-03-29T23:05:50.023Z,6.16
2019-03-29T23:08:25.879Z,6.21
2019-03-29T23:11:15.140Z,6.25
2019-03-29T23:14:01.611Z,6.11
2019-03-29T23:16:40.066Z,6.05
2019-03-29T23:19:25.511Z,6.04
2019-03-29T23:22:09.902Z,6.06
2019-03-29T23:24:59.741Z,6.07
2019-03-29T23:27:33.805Z,6.02
2019-03-29T23:30:09.572Z,5.99
2019-03-29T23:32:44.543Z,5.92
2019-03-29T23:35:28.782Z,6.02
2019-03-29T23:38:18.576Z,6.00
2019-03-29T23:41:13.984Z,6.00
2019-03-29T23:44:04.267Z,5.89
2019-03-29T23:46:49.983Z,5.77
2019-03-29T23:49:24.324Z,5.68
2019-03-29T23:51:59.238Z,5.67
2019-03-29T23:54:34.413Z,5.72
2019-03-29T23:57:09.345Z,5.80
2019-03-29T23:59:43.935Z,5.67
